sensor_id;sensor_type;location;lat;lon;timestamp;temperature;humidity
7958;DHT22;4024;52.172;5.378;2023-04-19T00:00:27;12.10;99.90
7958;DHT22;4024;52.172;5.378;2023-04-19T00:02:53;12.10;99.90
7958;DHT22;4024;52.172;5.378;2023-04-19T00:05:20;12.00;99.90
7958;DHT22;4024;52.172;5.378;2023-04-19T00:07:48;12.00;99.90
7958;DHT22;4024;52.172;5.378;2023-04-19T00:10:13;12.00;99.90
7958;DHT22;4024;52.172;5.378;2023-04-19T00:12:39;12.00;99.90
7958;DHT22;4024;52.172;5.378;2023-04-19T00:15:05;12.00;99.90
7958;DHT22;4024;52.172;5.378;2023-04-19T00:17:31;12.00;99.90
7958;DHT22;4024;52.172;5.378;2023-04-19T00:19:58;12.00;99.90
7958;DHT22;4024;52.172;5.378;2023-04-19T00:22:24;12.00;99.90
7958;DHT22;4024;52.172;5.378;2023-04-19T00:24:50;11.90;99.90
7958;DHT22;4024;52.172;5.378;2023-04-19T00:27:16;11.90;99.90
7958;DHT22;4024;52.172;5.378;2023-04-19T00:29:41;11.90;99.90
7958;DHT22;4024;52.172;5.378;2023-04-19T00:32:07;11.80;99.90
7958;DHT22;4024;52.172;5.378;2023-04-19T00:34:33;11.90;99.90
7958;DHT22;4024;52.172;5.378;2023-04-19T00:36:58;11.80;99.90
7958;DHT22;4024;52.172;5.378;2023-04-19T00:39:24;11.80;99.90
7958;DHT22;4024;52.172;5.378;2023-04-19T00:41:49;11.80;99.90
7958;DHT22;4024;52.172;5.378;2023-04-19T00:44:15;11.80;99.90
7958;DHT22;4024;52.172;5.378;2023-04-19T00:46:41;11.70;99.90
7958;DHT22;4024;52.172;5.378;2023-04-19T00:49:08;11.70;99.90
7958;DHT22;4024;52.172;5.378;2023-04-19T00:51:34;11.70;99.90
7958;DHT22;4024;52.172;5.378;2023-04-19T00:54:02;11.60;99.90
7958;DHT22;4024;52.172;5.378;2023-04-19T00:56:28;11.60;99.90
7958;DHT22;4024;52.172;5.378;2023-04-19T00:58:55;11.60;99.90
7958;DHT22;4024;52.172;5.378;2023-04-19T01:01:21;11.60;99.90
7958;DHT22;4024;52.172;5.378;2023-04-19T01:03:48;11.50;99.90
7958;DHT22;4024;52.172;5.378;2023-04-19T01:06:14;11.50;99.90
7958;DHT22;4024;52.172;5.378;2023-04-19T01:08:39;11.50;99.90
7958;DHT22;4024;52.172;5.378;2023-04-19T01:11:05;11.50;99.90
7958;DHT22;4024;52.172;5.378;2023-04-19T01:13:32;11.40;99.90
7958;DHT22;4024;52.172;5.378;2023-04-19T01:15:59;11.40;99.90
7958;DHT22;4024;52.172;5.378;2023-04-19T01:18:26;11.40;99.90
7958;DHT22;4024;52.172;5.378;2023-04-19T01:20:57;11.40;99.90
7958;DHT22;4024;52.172;5.378;2023-04-19T01:23:23;11.40;99.90
7958;DHT22;4024;52.172;5.378;2023-04-19T01:25:49;11.40;99.90
7958;DHT22;4024;52.172;5.378;2023-04-19T01:28:14;11.40;99.90
7958;DHT22;4024;52.172;5.378;2023-04-19T01:30:40;11.40;99.90
7958;DHT22;4024;52.172;5.378;2023-04-19T01:33:06;11.40;99.90
7958;DHT22;4024;52.172;5.378;2023-04-19T01:35:31;11.40;99.90
7958;DHT22;4024;52.172;5.378;2023-04-19T01:37:57;11.50;99.90
7958;DHT22;4024;52.172;5.378;2023-04-19T01:40:24;11.50;99.90
7958;DHT22;4024;52.172;5.378;2023-04-19T01:42:50;11.50;99.90
7958;DHT22;4024;52.172;5.378;2023-04-19T01:45:15;11.50;99.90
7958;DHT22;4024;52.172;5.378;2023-04-19T01:47:41;11.50;99.90
7958;DHT22;4024;52.172;5.378;2023-04-19T01:50:08;11.60;99.90
7958;DHT22;4024;52.172;5.378;2023-04-19T01:52:33;11.50;99.90
7958;DHT22;4024;52.172;5.378;2023-04-19T01:54:59;11.60;99.90
7958;DHT22;4024;52.172;5.378;2023-04-19T01:57:25;11.60;99.90
7958;DHT22;4024;52.172;5.378;2023-04-19T01:59:52;11.60;99.90
7958;DHT22;4024;52.172;5.378;2023-04-19T02:02:18;11.70;99.90
7958;DHT22;4024;52.172;5.378;2023-04-19T02:04:44;11.70;99.90
7958;DHT22;4024;52.172;5.378;2023-04-19T02:07:10;11.70;99.90
7958;DHT22;4024;52.172;5.378;2023-04-19T02:09:37;11.70;99.90
7958;DHT22;4024;52.172;5.378;2023-04-19T02:12:03;11.80;99.90
7958;DHT22;4024;52.172;5.378;2023-04-19T02:14:30;11.80;99.90
7958;DHT22;4024;52.172;5.378;2023-04-19T02:16:56;11.90;99.90
7958;DHT22;4024;52.172;5.378;2023-04-19T02:19:22;11.90;99.90
7958;DHT22;4024;52.172;5.378;2023-04-19T02:21:47;11.90;99.90
7958;DHT22;4024;52.172;5.378;2023-04-19T02:24:13;11.90;99.90
7958;DHT22;4024;52.172;5.378;2023-04-19T02:26:39;11.90;99.90
7958;DHT22;4024;52.172;5.378;2023-04-19T02:29:05;11.90;99.90
7958;DHT22;4024;52.172;5.378;2023-04-19T02:31:33;12.00;99.90
7958;DHT22;4024;52.172;5.378;2023-04-19T02:33:58;12.00;99.90
7958;DHT22;4024;52.172;5.378;2023-04-19T02:36:26;12.00;99.90
7958;DHT22;4024;52.172;5.378;2023-04-19T02:38:53;12.00;99.90
7958;DHT22;4024;52.172;5.378;2023-04-19T02:41:18;12.00;99.90
7958;DHT22;4024;52.172;5.378;2023-04-19T02:43:44;12.00;99.90
7958;DHT22;4024;52.172;5.378;2023-04-19T02:46:10;12.00;99.90
7958;DHT22;4024;52.172;5.378;2023-04-19T02:48:36;12.00;99.90
7958;DHT22;4024;52.172;5.378;2023-04-19T02:51:02;12.00;99.90
7958;DHT22;4024;52.172;5.378;2023-04-19T02:53:31;12.10;99.90
7958;DHT22;4024;52.172;5.378;2023-04-19T02:55:56;12.10;99.90
7958;DHT22;4024;52.172;5.378;2023-04-19T02:58:22;12.10;99.90
7958;DHT22;4024;52.172;5.378;2023-04-19T03:00:47;12.10;99.90
7958;DHT22;4024;52.172;5.378;2023-04-19T03:03:13;12.10;99.90
7958;DHT22;4024;52.172;5.378;2023-04-19T03:05:38;12.10;99.90
7958;DHT22;4024;52.172;5.378;2023-04-19T03:08:06;12.20;99.90
7958;DHT22;4024;52.172;5.378;2023-04-19T03:10:32;12.10;99.90
7958;DHT22;4024;52.172;5.378;2023-04-19T03:12:57;12.20;99.90
7958;DHT22;4024;52.172;5.378;2023-04-19T03:15:24;12.20;99.90
7958;DHT22;4024;52.172;5.378;2023-04-19T03:17:49;12.20;99.90
7958;DHT22;4024;52.172;5.378;2023-04-19T03:20:18;12.20;99.90
7958;DHT22;4024;52.172;5.378;2023-04-19T03:22:45;12.20;99.90
7958;DHT22;4024;52.172;5.378;2023-04-19T03:25:10;12.20;99.90
7958;DHT22;4024;52.172;5.378;2023-04-19T03:27:39;12.30;99.90
7958;DHT22;4024;52.172;5.378;2023-04-19T03:30:05;12.30;99.90
7958;DHT22;4024;52.172;5.378;2023-04-19T03:32:31;12.30;99.90
7958;DHT22;4024;52.172;5.378;2023-04-19T03:34:57;12.30;99.90
7958;DHT22;4024;52.172;5.378;2023-04-19T03:37:22;12.30;99.90
7958;DHT22;4024;52.172;5.378;2023-04-19T03:39:48;12.30;99.90
7958;DHT22;4024;52.172;5.378;2023-04-19T03:42:13;12.30;99.90
7958;DHT22;4024;52.172;5.378;2023-04-19T03:44:40;12.30;99.90
7958;DHT22;4024;52.172;5.378;2023-04-19T03:47:05;12.30;99.90
7958;DHT22;4024;52.172;5.378;2023-04-19T03:49:31;12.30;99.90
7958;DHT22;4024;52.172;5.378;2023-04-19T03:51:56;12.30;99.90
7958;DHT22;4024;52.172;5.378;2023-04-19T03:54:22;12.30;99.90
7958;DHT22;4024;52.172;5.378;2023-04-19T03:56:47;12.30;99.90
7958;DHT22;4024;52.172;5.378;2023-04-19T03:59:13;12.30;99.90
7958;DHT22;4024;52.172;5.378;2023-04-19T04:01:39;12.20;99.90
7958;DHT22;4024;52.172;5.378;2023-04-19T04:04:07;12.20;99.90
7958;DHT22;4024;52.172;5.378;2023-04-19T04:06:33;12.20;99.90
7958;DHT22;4024;52.172;5.378;2023-04-19T04:08:59;12.10;99.90
7958;DHT22;4024;52.172;5.378;2023-04-19T04:11:25;12.10;99.90
7958;DHT22;4024;52.172;5.378;2023-04-19T04:13:52;12.00;99.90
7958;DHT22;4024;52.172;5.378;2023-04-19T04:16:18;12.00;99.90
7958;DHT22;4024;52.172;5.378;2023-04-19T04:18:43;12.00;99.90
7958;DHT22;4024;52.172;5.378;2023-04-19T04:21:09;12.00;99.90
7958;DHT22;4024;52.172;5.378;2023-04-19T04:23:35;11.90;99.90
7958;DHT22;4024;52.172;5.378;2023-04-19T04:26:03;11.90;99.90
7958;DHT22;4024;52.172;5.378;2023-04-19T04:28:29;11.90;99.90
7958;DHT22;4024;52.172;5.378;2023-04-19T04:30:55;11.80;99.90
7958;DHT22;4024;52.172;5.378;2023-04-19T04:33:23;11.80;99.90
7958;DHT22;4024;52.172;5.378;2023-04-19T04:35:50;11.70;99.90
7958;DHT22;4024;52.172;5.378;2023-04-19T04:38:15;11.70;99.90
7958;DHT22;4024;52.172;5.378;2023-04-19T04:40:41;11.70;99.90
7958;DHT22;4024;52.172;5.378;2023-04-19T04:43:08;11.70;99.90
7958;DHT22;4024;52.172;5.378;2023-04-19T04:45:35;11.60;99.90
7958;DHT22;4024;52.172;5.378;2023-04-19T04:48:02;11.60;99.90
7958;DHT22;4024;52.172;5.378;2023-04-19T04:50:27;11.60;99.90
7958;DHT22;4024;52.172;5.378;2023-04-19T04:52:53;11.50;99.90
7958;DHT22;4024;52.172;5.378;2023-04-19T04:55:19;11.50;99.90
7958;DHT22;4024;52.172;5.378;2023-04-19T04:57:44;11.50;99.90
7958;DHT22;4024;52.172;5.378;2023-04-19T05:00:11;11.50;99.90
7958;DHT22;4024;52.172;5.378;2023-04-19T05:02:37;11.40;99.90
7958;DHT22;4024;52.172;5.378;2023-04-19T05:05:03;11.40;99.90
7958;DHT22;4024;52.172;5.378;2023-04-19T05:07:28;11.40;99.90
7958;DHT22;4024;52.172;5.378;2023-04-19T05:09:54;11.40;99.90
7958;DHT22;4024;52.172;5.378;2023-04-19T05:12:19;11.30;99.90
7958;DHT22;4024;52.172;5.378;2023-04-19T05:14:45;11.30;99.90
7958;DHT22;4024;52.172;5.378;2023-04-19T05:17:10;11.30;99.90
7958;DHT22;4024;52.172;5.378;2023-04-19T05:19:36;11.30;99.90
7958;DHT22;4024;52.172;5.378;2023-04-19T05:22:01;11.30;99.90
7958;DHT22;4024;52.172;5.378;2023-04-19T05:24:27;11.30;99.90
7958;DHT22;4024;52.172;5.378;2023-04-19T05:26:52;11.30;99.90
7958;DHT22;4024;52.172;5.378;2023-04-19T05:29:18;11.20;99.90
7958;DHT22;4024;52.172;5.378;2023-04-19T05:31:44;11.20;99.90
7958;DHT22;4024;52.172;5.378;2023-04-19T05:34:09;11.20;99.90
7958;DHT22;4024;52.172;5.378;2023-04-19T05:36:35;11.20;99.90
7958;DHT22;4024;52.172;5.378;2023-04-19T05:39:00;11.20;99.90
7958;DHT22;4024;52.172;5.378;2023-04-19T05:41:26;11.20;99.90
7958;DHT22;4024;52.172;5.378;2023-04-19T05:43:51;11.20;99.90
7958;DHT22;4024;52.172;5.378;2023-04-19T05:46:17;11.30;99.90
7958;DHT22;4024;52.172;5.378;2023-04-19T05:48:43;11.30;99.90
7958;DHT22;4024;52.172;5.378;2023-04-19T05:51:08;11.30;99.90
7958;DHT22;4024;52.172;5.378;2023-04-19T05:53:34;11.30;99.90
7958;DHT22;4024;52.172;5.378;2023-04-19T05:55:59;11.40;99.90
7958;DHT22;4024;52.172;5.378;2023-04-19T05:58:25;11.40;99.90
7958;DHT22;4024;52.172;5.378;2023-04-19T06:00:51;11.40;99.90
7958;DHT22;4024;52.172;5.378;2023-04-19T06:03:17;11.50;99.90
7958;DHT22;4024;52.172;5.378;2023-04-19T06:05:42;11.50;99.90
7958;DHT22;4024;52.172;5.378;2023-04-19T06:08:08;11.50;99.90
7958;DHT22;4024;52.172;5.378;2023-04-19T06:10:34;11.60;99.90
7958;DHT22;4024;52.172;5.378;2023-04-19T06:13:00;11.60;99.90
7958;DHT22;4024;52.172;5.378;2023-04-19T06:15:26;11.70;99.90
7958;DHT22;4024;52.172;5.378;2023-04-19T06:17:51;11.70;99.90
7958;DHT22;4024;52.172;5.378;2023-04-19T06:20:17;11.70;99.90
7958;DHT22;4024;52.172;5.378;2023-04-19T06:22:47;11.70;99.90
7958;DHT22;4024;52.172;5.378;2023-04-19T06:25:12;11.80;99.90
7958;DHT22;4024;52.172;5.378;2023-04-19T06:27:38;11.80;99.90
7958;DHT22;4024;52.172;5.378;2023-04-19T06:30:04;11.80;99.90
7958;DHT22;4024;52.172;5.378;2023-04-19T06:32:29;11.90;99.90
7958;DHT22;4024;52.172;5.378;2023-04-19T06:34:55;11.90;99.90
7958;DHT22;4024;52.172;5.378;2023-04-19T06:37:20;11.90;99.90
7958;DHT22;4024;52.172;5.378;2023-04-19T06:39:46;11.90;99.90
7958;DHT22;4024;52.172;5.378;2023-04-19T06:42:12;11.90;99.90
7958;DHT22;4024;52.172;5.378;2023-04-19T06:44:37;12.00;99.90
7958;DHT22;4024;52.172;5.378;2023-04-19T06:47:03;12.00;99.90
7958;DHT22;4024;52.172;5.378;2023-04-19T06:49:28;12.00;99.90
7958;DHT22;4024;52.172;5.378;2023-04-19T06:51:54;12.00;99.90
7958;DHT22;4024;52.172;5.378;2023-04-19T06:54:20;12.00;99.90
7958;DHT22;4024;52.172;5.378;2023-04-19T06:56:48;12.00;99.90
7958;DHT22;4024;52.172;5.378;2023-04-19T06:59:16;12.00;99.90
7958;DHT22;4024;52.172;5.378;2023-04-19T07:01:42;12.10;99.90
7958;DHT22;4024;52.172;5.378;2023-04-19T07:04:08;12.10;99.90
7958;DHT22;4024;52.172;5.378;2023-04-19T07:06:34;12.10;99.90
7958;DHT22;4024;52.172;5.378;2023-04-19T07:09:00;12.10;99.90
7958;DHT22;4024;52.172;5.378;2023-04-19T07:11:26;12.10;99.90
7958;DHT22;4024;52.172;5.378;2023-04-19T07:13:51;12.10;99.90
7958;DHT22;4024;52.172;5.378;2023-04-19T07:16:17;12.10;99.90
7958;DHT22;4024;52.172;5.378;2023-04-19T07:18:43;12.20;99.90
7958;DHT22;4024;52.172;5.378;2023-04-19T07:21:09;12.10;99.90
7958;DHT22;4024;52.172;5.378;2023-04-19T07:23:35;12.10;99.90
7958;DHT22;4024;52.172;5.378;2023-04-19T07:26:00;12.10;99.90
7958;DHT22;4024;52.172;5.378;2023-04-19T07:28:28;12.20;99.90
7958;DHT22;4024;52.172;5.378;2023-04-19T07:30:53;12.20;99.90
7958;DHT22;4024;52.172;5.378;2023-04-19T07:33:19;12.20;99.90
7958;DHT22;4024;52.172;5.378;2023-04-19T07:35:45;12.20;99.90
7958;DHT22;4024;52.172;5.378;2023-04-19T07:38:11;12.20;99.90
7958;DHT22;4024;52.172;5.378;2023-04-19T07:40:37;12.20;99.90
7958;DHT22;4024;52.172;5.378;2023-04-19T07:43:02;12.20;99.90
7958;DHT22;4024;52.172;5.378;2023-04-19T07:45:29;12.30;99.90
7958;DHT22;4024;52.172;5.378;2023-04-19T07:47:55;12.30;99.90
7958;DHT22;4024;52.172;5.378;2023-04-19T07:50:20;12.40;99.90
7958;DHT22;4024;52.172;5.378;2023-04-19T07:52:46;12.40;99.90
7958;DHT22;4024;52.172;5.378;2023-04-19T07:55:14;12.40;99.90
7958;DHT22;4024;52.172;5.378;2023-04-19T07:57:39;12.50;99.90
7958;DHT22;4024;52.172;5.378;2023-04-19T08:00:05;12.40;99.90
7958;DHT22;4024;52.172;5.378;2023-04-19T08:02:31;12.50;99.90
7958;DHT22;4024;52.172;5.378;2023-04-19T08:04:57;12.50;99.80
7958;DHT22;4024;52.172;5.378;2023-04-19T08:07:23;12.50;99.50
7958;DHT22;4024;52.172;5.378;2023-04-19T08:09:50;12.50;99.00
7958;DHT22;4024;52.172;5.378;2023-04-19T08:12:16;12.60;98.60
7958;DHT22;4024;52.172;5.378;2023-04-19T08:14:43;12.60;98.40
7958;DHT22;4024;52.172;5.378;2023-04-19T08:17:08;12.50;98.20
7958;DHT22;4024;52.172;5.378;2023-04-19T08:19:34;12.60;97.80
7958;DHT22;4024;52.172;5.378;2023-04-19T08:22:00;12.70;98.20
7958;DHT22;4024;52.172;5.378;2023-04-19T08:24:25;12.70;98.00
7958;DHT22;4024;52.172;5.378;2023-04-19T08:26:52;12.70;97.30
7958;DHT22;4024;52.172;5.378;2023-04-19T08:29:20;12.80;97.10
7958;DHT22;4024;52.172;5.378;2023-04-19T08:31:46;12.70;97.30
7958;DHT22;4024;52.172;5.378;2023-04-19T08:34:12;12.80;96.70
7958;DHT22;4024;52.172;5.378;2023-04-19T08:36:37;12.80;96.90
7958;DHT22;4024;52.172;5.378;2023-04-19T08:39:03;12.80;97.10
7958;DHT22;4024;52.172;5.378;2023-04-19T08:41:31;12.90;97.20
7958;DHT22;4024;52.172;5.378;2023-04-19T08:43:58;12.90;97.10
7958;DHT22;4024;52.172;5.378;2023-04-19T08:46:25;13.00;97.30
7958;DHT22;4024;52.172;5.378;2023-04-19T08:48:51;13.00;97.00
7958;DHT22;4024;52.172;5.378;2023-04-19T08:51:18;13.00;97.20
7958;DHT22;4024;52.172;5.378;2023-04-19T08:53:44;13.10;96.90
7958;DHT22;4024;52.172;5.378;2023-04-19T08:56:11;13.10;96.50
7958;DHT22;4024;52.172;5.378;2023-04-19T08:58:36;13.10;96.50
7958;DHT22;4024;52.172;5.378;2023-04-19T09:01:06;13.20;95.60
7958;DHT22;4024;52.172;5.378;2023-04-19T09:03:33;13.20;95.20
7958;DHT22;4024;52.172;5.378;2023-04-19T09:06:00;13.30;94.50
7958;DHT22;4024;52.172;5.378;2023-04-19T09:08:29;13.30;93.20
7958;DHT22;4024;52.172;5.378;2023-04-19T09:10:57;13.30;93.30
7958;DHT22;4024;52.172;5.378;2023-04-19T09:13:24;13.40;93.50
7958;DHT22;4024;52.172;5.378;2023-04-19T09:15:50;13.40;93.60
7958;DHT22;4024;52.172;5.378;2023-04-19T09:18:16;13.40;92.60
7958;DHT22;4024;52.172;5.378;2023-04-19T09:20:43;13.40;90.90
7958;DHT22;4024;52.172;5.378;2023-04-19T09:23:18;13.50;90.00
7958;DHT22;4024;52.172;5.378;2023-04-19T09:26:00;13.40;90.30
7958;DHT22;4024;52.172;5.378;2023-04-19T09:28:30;13.50;90.60
7958;DHT22;4024;52.172;5.378;2023-04-19T09:30:56;13.50;88.90
7958;DHT22;4024;52.172;5.378;2023-04-19T09:33:33;13.60;88.50
7958;DHT22;4024;52.172;5.378;2023-04-19T09:36:00;13.60;90.40
7958;DHT22;4024;52.172;5.378;2023-04-19T09:38:29;13.60;90.70
7958;DHT22;4024;52.172;5.378;2023-04-19T09:41:07;13.70;90.90
7958;DHT22;4024;52.172;5.378;2023-04-19T09:43:33;13.70;92.00
7958;DHT22;4024;52.172;5.378;2023-04-19T09:45:59;13.70;90.30
7958;DHT22;4024;52.172;5.378;2023-04-19T09:48:24;13.80;90.60
7958;DHT22;4024;52.172;5.378;2023-04-19T09:50:51;13.90;90.40
7958;DHT22;4024;52.172;5.378;2023-04-19T09:53:18;13.90;90.40
7958;DHT22;4024;52.172;5.378;2023-04-19T09:55:45;13.90;89.90
7958;DHT22;4024;52.172;5.378;2023-04-19T09:58:12;13.90;90.80
7958;DHT22;4024;52.172;5.378;2023-04-19T10:00:39;14.00;90.50
7958;DHT22;4024;52.172;5.378;2023-04-19T10:03:08;14.00;90.50
7958;DHT22;4024;52.172;5.378;2023-04-19T10:05:37;14.10;90.60
7958;DHT22;4024;52.172;5.378;2023-04-19T10:08:09;14.10;88.20
7958;DHT22;4024;52.172;5.378;2023-04-19T10:10:35;14.10;88.60
7958;DHT22;4024;52.172;5.378;2023-04-19T10:13:03;14.20;87.70
7958;DHT22;4024;52.172;5.378;2023-04-19T10:15:30;14.20;86.40
7958;DHT22;4024;52.172;5.378;2023-04-19T10:17:56;14.20;86.20
7958;DHT22;4024;52.172;5.378;2023-04-19T10:20:29;14.30;85.70
7958;DHT22;4024;52.172;5.378;2023-04-19T10:22:58;14.30;84.10
7958;DHT22;4024;52.172;5.378;2023-04-19T10:25:28;14.40;81.20
7958;DHT22;4024;52.172;5.378;2023-04-19T10:27:55;14.40;80.90
7958;DHT22;4024;52.172;5.378;2023-04-19T10:30:22;14.40;82.00
7958;DHT22;4024;52.172;5.378;2023-04-19T10:32:55;14.50;81.10
7958;DHT22;4024;52.172;5.378;2023-04-19T10:35:23;14.50;79.50
7958;DHT22;4024;52.172;5.378;2023-04-19T10:38:03;14.50;80.00
7958;DHT22;4024;52.172;5.378;2023-04-19T10:43:21;14.60;80.10
7958;DHT22;4024;52.172;5.378;2023-04-19T10:45:47;14.70;77.00
7958;DHT22;4024;52.172;5.378;2023-04-19T10:51:17;14.80;77.50
7958;DHT22;4024;52.172;5.378;2023-04-19T11:01:38;15.00;75.80
7958;DHT22;4024;52.172;5.378;2023-04-19T11:07:04;15.10;73.90
7958;DHT22;4024;52.172;5.378;2023-04-19T11:12:05;15.20;70.00
7958;DHT22;4024;52.172;5.378;2023-04-19T11:14:45;15.20;69.90
7958;DHT22;4024;52.172;5.378;2023-04-19T11:17:17;15.30;68.80
7958;DHT22;4024;52.172;5.378;2023-04-19T11:22:41;15.40;63.40
7958;DHT22;4024;52.172;5.378;2023-04-19T11:25:18;15.40;64.00
7958;DHT22;4024;52.172;5.378;2023-04-19T11:27:52;15.50;63.30
7958;DHT22;4024;52.172;5.378;2023-04-19T11:30:19;15.70;63.00
7958;DHT22;4024;52.172;5.378;2023-04-19T11:32:48;15.50;62.90
7958;DHT22;4024;52.172;5.378;2023-04-19T11:35:17;15.60;63.10
7958;DHT22;4024;52.172;5.378;2023-04-19T11:37:42;15.60;61.80
7958;DHT22;4024;52.172;5.378;2023-04-19T11:40:08;15.70;61.00
7958;DHT22;4024;52.172;5.378;2023-04-19T11:42:38;15.70;59.70
7958;DHT22;4024;52.172;5.378;2023-04-19T11:45:04;15.80;59.80
7958;DHT22;4024;52.172;5.378;2023-04-19T11:47:31;15.80;59.10
7958;DHT22;4024;52.172;5.378;2023-04-19T11:52:58;15.90;56.70
7958;DHT22;4024;52.172;5.378;2023-04-19T11:55:24;16.00;57.40
7958;DHT22;4024;52.172;5.378;2023-04-19T11:57:49;16.00;57.20
7958;DHT22;4024;52.172;5.378;2023-04-19T12:00:16;16.10;54.80
7958;DHT22;4024;52.172;5.378;2023-04-19T12:02:51;16.10;55.60
7958;DHT22;4024;52.172;5.378;2023-04-19T12:05:16;16.20;54.90
7958;DHT22;4024;52.172;5.378;2023-04-19T12:08:02;16.30;54.30
7958;DHT22;4024;52.172;5.378;2023-04-19T12:10:30;16.30;53.70
7958;DHT22;4024;52.172;5.378;2023-04-19T12:12:56;16.40;54.20
7958;DHT22;4024;52.172;5.378;2023-04-19T12:15:22;16.40;53.50
7958;DHT22;4024;52.172;5.378;2023-04-19T12:18:01;16.40;53.60
7958;DHT22;4024;52.172;5.378;2023-04-19T12:20:34;16.50;53.70
7958;DHT22;4024;52.172;5.378;2023-04-19T12:23:00;16.50;53.60
7958;DHT22;4024;52.172;5.378;2023-04-19T12:25:30;16.60;54.10
7958;DHT22;4024;52.172;5.378;2023-04-19T12:27:58;16.60;53.60
7958;DHT22;4024;52.172;5.378;2023-04-19T12:30:25;16.70;54.50
7958;DHT22;4024;52.172;5.378;2023-04-19T12:32:52;16.70;54.30
7958;DHT22;4024;52.172;5.378;2023-04-19T12:35:21;16.70;53.50
7958;DHT22;4024;52.172;5.378;2023-04-19T12:37:47;16.70;53.20
7958;DHT22;4024;52.172;5.378;2023-04-19T12:40:13;16.80;53.40
7958;DHT22;4024;52.172;5.378;2023-04-19T12:42:39;16.80;53.20
7958;DHT22;4024;52.172;5.378;2023-04-19T12:45:05;16.80;52.20
7958;DHT22;4024;52.172;5.378;2023-04-19T12:47:31;16.90;52.80
7958;DHT22;4024;52.172;5.378;2023-04-19T12:49:56;16.90;53.30
7958;DHT22;4024;52.172;5.378;2023-04-19T12:52:22;17.00;53.40
7958;DHT22;4024;52.172;5.378;2023-04-19T12:54:48;17.10;53.40
7958;DHT22;4024;52.172;5.378;2023-04-19T12:57:14;17.10;53.50
7958;DHT22;4024;52.172;5.378;2023-04-19T12:59:39;17.10;52.50
7958;DHT22;4024;52.172;5.378;2023-04-19T13:02:06;17.20;52.90
7958;DHT22;4024;52.172;5.378;2023-04-19T13:04:31;17.20;53.40
7958;DHT22;4024;52.172;5.378;2023-04-19T13:06:57;17.30;53.00
7958;DHT22;4024;52.172;5.378;2023-04-19T13:09:23;17.30;53.30
7958;DHT22;4024;52.172;5.378;2023-04-19T13:11:48;17.40;53.30
7958;DHT22;4024;52.172;5.378;2023-04-19T13:14:14;17.40;53.40
7958;DHT22;4024;52.172;5.378;2023-04-19T13:16:40;17.50;54.40
7958;DHT22;4024;52.172;5.378;2023-04-19T13:19:07;17.50;55.00
7958;DHT22;4024;52.172;5.378;2023-04-19T13:21:33;17.50;56.40
7958;DHT22;4024;52.172;5.378;2023-04-19T13:23:58;17.50;55.30
7958;DHT22;4024;52.172;5.378;2023-04-19T13:26:24;17.60;55.70
7958;DHT22;4024;52.172;5.378;2023-04-19T13:28:49;17.60;56.10
7958;DHT22;4024;52.172;5.378;2023-04-19T13:31:15;17.50;54.90
7958;DHT22;4024;52.172;5.378;2023-04-19T13:33:41;17.50;54.30
7958;DHT22;4024;52.172;5.378;2023-04-19T13:36:06;17.60;54.80
7958;DHT22;4024;52.172;5.378;2023-04-19T13:38:32;17.60;54.40
7958;DHT22;4024;52.172;5.378;2023-04-19T13:40:58;17.60;54.50
7958;DHT22;4024;52.172;5.378;2023-04-19T13:43:24;17.70;54.20
7958;DHT22;4024;52.172;5.378;2023-04-19T13:45:51;17.70;54.00
7958;DHT22;4024;52.172;5.378;2023-04-19T13:48:16;17.70;54.70
7958;DHT22;4024;52.172;5.378;2023-04-19T13:50:42;17.70;54.00
7958;DHT22;4024;52.172;5.378;2023-04-19T13:53:07;17.70;55.20
7958;DHT22;4024;52.172;5.378;2023-04-19T13:55:33;17.70;54.40
7958;DHT22;4024;52.172;5.378;2023-04-19T13:57:59;17.70;54.30
7958;DHT22;4024;52.172;5.378;2023-04-19T14:00:24;17.70;54.50
7958;DHT22;4024;52.172;5.378;2023-04-19T14:02:50;17.70;53.40
7958;DHT22;4024;52.172;5.378;2023-04-19T14:05:16;17.70;53.30
7958;DHT22;4024;52.172;5.378;2023-04-19T14:07:41;17.70;54.10
7958;DHT22;4024;52.172;5.378;2023-04-19T14:10:08;17.80;54.10
7958;DHT22;4024;52.172;5.378;2023-04-19T14:12:34;17.80;54.10
7958;DHT22;4024;52.172;5.378;2023-04-19T14:14:59;17.80;54.60
7958;DHT22;4024;52.172;5.378;2023-04-19T14:17:25;17.80;53.90
7958;DHT22;4024;52.172;5.378;2023-04-19T14:19:51;17.90;53.60
7958;DHT22;4024;52.172;5.378;2023-04-19T14:22:16;17.80;53.40
7958;DHT22;4024;52.172;5.378;2023-04-19T14:24:42;17.90;53.10
7958;DHT22;4024;52.172;5.378;2023-04-19T14:27:08;17.90;52.60
7958;DHT22;4024;52.172;5.378;2023-04-19T14:29:33;17.90;53.10
7958;DHT22;4024;52.172;5.378;2023-04-19T14:31:59;17.90;51.70
7958;DHT22;4024;52.172;5.378;2023-04-19T14:34:25;17.90;52.00
7958;DHT22;4024;52.172;5.378;2023-04-19T14:36:51;17.90;52.00
7958;DHT22;4024;52.172;5.378;2023-04-19T14:39:17;17.90;51.60
7958;DHT22;4024;52.172;5.378;2023-04-19T14:41:42;17.80;51.00
7958;DHT22;4024;52.172;5.378;2023-04-19T14:44:08;17.90;51.30
7958;DHT22;4024;52.172;5.378;2023-04-19T14:46:33;17.90;51.40
7958;DHT22;4024;52.172;5.378;2023-04-19T14:48:59;18.00;52.10
7958;DHT22;4024;52.172;5.378;2023-04-19T14:51:29;17.90;52.50
7958;DHT22;4024;52.172;5.378;2023-04-19T14:53:56;17.80;53.40
7958;DHT22;4024;52.172;5.378;2023-04-19T14:56:22;17.90;54.20
7958;DHT22;4024;52.172;5.378;2023-04-19T14:58:48;17.90;52.60
7958;DHT22;4024;52.172;5.378;2023-04-19T15:01:14;18.00;52.10
7958;DHT22;4024;52.172;5.378;2023-04-19T15:03:40;18.00;52.80
7958;DHT22;4024;52.172;5.378;2023-04-19T15:06:06;18.00;54.20
7958;DHT22;4024;52.172;5.378;2023-04-19T15:08:32;18.00;52.70
7958;DHT22;4024;52.172;5.378;2023-04-19T15:10:58;18.10;52.50
7958;DHT22;4024;52.172;5.378;2023-04-19T15:13:24;18.10;54.10
7958;DHT22;4024;52.172;5.378;2023-04-19T15:15:50;18.10;55.50
7958;DHT22;4024;52.172;5.378;2023-04-19T15:18:15;18.00;56.20
7958;DHT22;4024;52.172;5.378;2023-04-19T15:20:41;18.00;57.90
7958;DHT22;4024;52.172;5.378;2023-04-19T15:23:07;18.00;57.60
7958;DHT22;4024;52.172;5.378;2023-04-19T15:25:34;18.00;58.40
7958;DHT22;4024;52.172;5.378;2023-04-19T15:27:59;17.90;58.90
7958;DHT22;4024;52.172;5.378;2023-04-19T15:30:25;17.90;59.70
7958;DHT22;4024;52.172;5.378;2023-04-19T15:32:51;17.90;61.20
7958;DHT22;4024;52.172;5.378;2023-04-19T15:35:16;17.90;61.30
7958;DHT22;4024;52.172;5.378;2023-04-19T15:37:42;17.90;61.90
7958;DHT22;4024;52.172;5.378;2023-04-19T15:40:09;17.90;62.50
7958;DHT22;4024;52.172;5.378;2023-04-19T15:42:36;17.90;63.00
7958;DHT22;4024;52.172;5.378;2023-04-19T15:45:02;17.90;63.80
7958;DHT22;4024;52.172;5.378;2023-04-19T15:47:28;17.80;63.80
7958;DHT22;4024;52.172;5.378;2023-04-19T15:49:53;17.70;64.50
7958;DHT22;4024;52.172;5.378;2023-04-19T15:52:19;17.80;64.90
7958;DHT22;4024;52.172;5.378;2023-04-19T15:54:45;17.60;64.10
7958;DHT22;4024;52.172;5.378;2023-04-19T15:57:10;17.80;64.00
7958;DHT22;4024;52.172;5.378;2023-04-19T15:59:36;17.80;64.20
7958;DHT22;4024;52.172;5.378;2023-04-19T16:02:02;17.70;63.60
7958;DHT22;4024;52.172;5.378;2023-04-19T16:04:27;17.70;64.40
7958;DHT22;4024;52.172;5.378;2023-04-19T16:06:54;17.70;65.00
7958;DHT22;4024;52.172;5.378;2023-04-19T16:09:19;17.70;66.10
7958;DHT22;4024;52.172;5.378;2023-04-19T16:11:48;17.70;65.90
7958;DHT22;4024;52.172;5.378;2023-04-19T16:14:14;17.70;66.70
7958;DHT22;4024;52.172;5.378;2023-04-19T16:16:40;17.70;65.70
7958;DHT22;4024;52.172;5.378;2023-04-19T16:19:05;17.70;62.60
7958;DHT22;4024;52.172;5.378;2023-04-19T16:21:31;17.70;62.20